Time;durP1;ratioP1;P1;durP2;ratioP2;P2;SDS_P1;SDS_P2;PMS_P1;PMS_P2;Temp;Humidity;BMP_temperature;BMP_pressure;BME280_temperature;BME280_humidity;BME280_pressure;Samples;Min_cycle;Max_cycle;Signal;HPM_P1;HPM_P2
2021/08/26 00:07:05;;;;;;;;;;;;;;;;;;4985491;28;19937;-68
2021/08/26 00:09:32;;;;;;;;;;;;;;;;;;4993921;28;20003;-68
2021/08/26 00:11:59;;;;;;;;;;;;;;;;;;4989047;28;20290;-69
2021/08/26 00:14:26;;;;;;;;;;;;;;;;;;4990826;28;19925;-67
2021/08/26 00:16:53;;;;;;;;;;;;;;;;;;4988384;28;19925;-68
2021/08/26 00:19:21;;;;;;;;;;;;;;;;;;4995081;28;20259;-69
2021/08/26 00:21:48;;;;;;;;;;;;;;;;;;4990734;28;19930;-65
2021/08/26 00:24:14;;;;;;;;;;;;;;;;;;4990951;28;20488;-67
2021/08/26 00:26:41;;;;;;;;;;;;;;;;;;4985968;28;19926;-69
2021/08/26 00:29:08;;;;;;;;;;;;;;;;;;4990208;28;20290;-68
2021/08/26 00:31:35;;;;;;;;;;;;;;;;;;4987968;28;19926;-66
2021/08/26 00:34:02;;;;;;;;;;;;;;;;;;4990389;28;19937;-70
2021/08/26 00:36:29;;;;;;;;;;;;;;;;;;4987790;28;20036;-66
2021/08/26 00:38:56;;;;;;;;;;;;;;;;;;4991050;28;19932;-65
2021/08/26 00:41:23;;;;;;;;;;;;;;;;;;4988237;28;20013;-66
2021/08/26 00:43:50;;;;;;;;;;;;;;;;;;4988790;28;19930;-67
2021/08/26 00:46:17;;;;;;;;;;;;;;;;;;4983888;28;19929;-66
2021/08/26 00:48:44;;;;;;;;;;;;;;;;;;4988137;28;19933;-67
2021/08/26 00:51:11;;;;;;;;;;;;;;;;;;4993751;28;19945;-67
2021/08/26 00:53:39;;;;;;;;;;;;;;;;;;4991959;28;19925;-67
2021/08/26 00:56:06;;;;;;;;;;;;;;;;;;4991989;28;21855;-67
2021/08/26 00:58:33;;;;;;;;;;;;;;;;;;4987254;28;19926;-67
2021/08/26 01:01:00;;;;;;;;;;;;;;;;;;4987431;28;19930;-67
2021/08/26 01:03:27;;;;;;;;;;;;;;;;;;4987014;28;19930;-68
2021/08/26 01:05:54;;;;;;;;;;;;;;;;;;4989909;28;19937;-70
2021/08/26 01:08:21;;;;;;;;;;;;;;;;;;4986373;28;20310;-65
2021/08/26 01:10:48;;;;;;;;;;;;;;;;;;4984233;28;19930;-67
2021/08/26 01:13:15;;;;;;;;;;;;;;;;;;4994356;28;19926;-67
2021/08/26 01:15:42;;;;;;;;;;;;;;;;;;4988876;28;20394;-66
2021/08/26 01:18:09;;;;;;;;;;;;;;;;;;4983881;28;19932;-67
2021/08/26 01:20:36;;;;;;;;;;;;;;;;;;4994410;28;20390;-67
2021/08/26 01:23:03;;;;;;;;;;;;;;;;;;4998275;28;20130;-66
2021/08/26 01:25:30;;;;;;;;;;;;;;;;;;4994515;28;19937;-68
2021/08/26 01:27:57;;;;;;;;;;;;;;;;;;4993817;28;19926;-66
2021/08/26 01:30:24;;;;;;;;;;;;;;;;;;4991753;28;20305;-66
2021/08/26 01:32:51;;;;;;;;;;;;;;;;;;4997083;28;19925;-67
2021/08/26 01:35:18;;;;;;;;;;;;;;;;;;4997679;28;19930;-65
2021/08/26 01:37:45;;;;;;;;;;;;;;;;;;4992905;28;19926;-67
2021/08/26 01:40:12;;;;;;;;;;;;;;;;;;4992682;28;20398;-67
2021/08/26 01:42:39;;;;;;;;;;;;;;;;;;4992781;28;19948;-65
2021/08/26 01:45:06;;;;;;;;;;;;;;;;;;4991004;28;19932;-65
2021/08/26 01:47:33;;;;;;;;;;;;;;;;;;4993423;28;19936;-65
2021/08/26 01:50:00;;;;;;;;;;;;;;;;;;4984519;28;19930;-67
2021/08/26 01:52:27;;;;;;;;;;;;;;;;;;4997175;28;19926;-67
2021/08/26 01:54:54;;;;;;;;;;;;;;;;;;4991441;28;19926;-67
2021/08/26 01:57:21;;;;;;;;;;;;;;;;;;4986750;28;19925;-66
2021/08/26 01:59:48;;;;;;;;;;;;;;;;;;4986975;28;20405;-66
2021/08/26 02:02:15;;;;;;;;;;;;;;;;;;4992459;28;19926;-67
2021/08/26 02:04:42;;;;;;;;;;;;;;;;;;4998437;28;19932;-67
2021/08/26 02:07:09;;;;;;;;;;;;;;;;;;4991973;28;19926;-66
2021/08/26 02:09:36;;;;;;;;;;;;;;;;;;4992965;28;19932;-64
2021/08/26 02:12:03;;;;;;;;;;;;;;;;;;4993648;28;19932;-64
2021/08/26 02:14:30;;;;;;;;;;;;;;;;;;4999626;28;20197;-65
2021/08/26 02:16:56;;;;;;;;;;;;;;;;;;4988551;28;19936;-67
2021/08/26 02:19:23;;;;;;;;;;;;;;;;;;4995436;28;19930;-66
2021/08/26 02:21:50;;;;;;;;;;;;;;;;;;4995096;28;19942;-67
2021/08/26 02:24:17;;;;;;;;;;;;;;;;;;4993811;28;20395;-66
2021/08/26 02:26:44;;;;;;;;;;;;;;;;;;4991291;28;19941;-67
2021/08/26 02:29:11;;;;;;;;;;;;;;;;;;4998005;28;19930;-67
2021/08/26 02:31:38;;;;;;;;;;;;;;;;;;4992695;28;19926;-64
2021/08/26 02:34:05;;;;;;;;;;;;;;;;;;4991835;28;19968;-68
2021/08/26 02:36:32;;;;;;;;;;;;;;;;;;4992940;28;19925;-66
2021/08/26 02:38:59;;;;;;;;;;;;;;;;;;4990636;28;19926;-68
2021/08/26 02:41:26;;;;;;;;;;;;;;;;;;4987910;28;19925;-68
2021/08/26 02:43:53;;;;;;;;;;;;;;;;;;4991100;28;19926;-67
2021/08/26 02:46:20;;;;;;;;;;;;;;;;;;4988157;28;20417;-67
2021/08/26 02:48:47;;;;;;;;;;;;;;;;;;4987040;28;19984;-67
2021/08/26 02:51:14;;;;;;;;;;;;;;;;;;4991270;28;20029;-68
2021/08/26 02:53:41;;;;;;;;;;;;;;;;;;4987744;28;19934;-65
2021/08/26 02:56:08;;;;;;;;;;;;;;;;;;4990327;28;19934;-68
2021/08/26 02:58:35;;;;;;;;;;;;;;;;;;4988084;28;20301;-67
2021/08/26 03:01:02;;;;;;;;;;;;;;;;;;4987543;28;19949;-67
2021/08/26 03:03:29;;;;;;;;;;;;;;;;;;4989081;28;20009;-67
2021/08/26 03:05:56;;;;;;;;;;;;;;;;;;4989783;28;19944;-67
2021/08/26 03:08:23;;;;;;;;;;;;;;;;;;4999383;28;20196;-68
2021/08/26 03:10:50;;;;;;;;;;;;;;;;;;4991254;28;20317;-67
2021/08/26 03:13:17;;;;;;;;;;;;;;;;;;4987935;28;19933;-68
2021/08/26 03:15:44;;;;;;;;;;;;;;;;;;4990668;28;19940;-67
2021/08/26 03:18:11;;;;;;;;;;;;;;;;;;4987787;28;19969;-67
2021/08/26 03:20:40;;;;;;;;;;;;;;;;;;4996085;28;19933;-67
2021/08/26 03:23:07;;;;;;;;;;;;;;;;;;4993527;28;19929;-68
2021/08/26 03:25:33;;;;;;;;;;;;;;;;;;4989431;28;19940;-68
2021/08/26 03:28:00;;;;;;;;;;;;;;;;;;4989786;28;19936;-67
2021/08/26 03:30:27;;;;;;;;;;;;;;;;;;4988924;28;20406;-66
2021/08/26 03:32:54;;;;;;;;;;;;;;;;;;4991703;28;19934;-67
2021/08/26 03:35:21;;;;;;;;;;;;;;;;;;4989152;28;19926;-67
2021/08/26 03:37:48;;;;;;;;;;;;;;;;;;4987884;28;19934;-68
2021/08/26 03:40:15;;;;;;;;;;;;;;;;;;4986794;28;20294;-68
2021/08/26 03:42:42;;;;;;;;;;;;;;;;;;5027437;22;20359;-66
2021/08/26 03:45:09;;;;;;;;;;;;;;;;;;5045494;28;19931;-67
2021/08/26 03:47:36;;;;;;;;;;;;;;;;;;5044620;28;20020;-66
2021/08/26 03:50:03;;;;;;;;;;;;;;;;;;5042786;28;19936;-67
2021/08/26 03:52:30;;;;;;;;;;;;;;;;;;5042558;28;20324;-66
2021/08/26 03:54:57;;;;;;;;;;;;;;;;;;5046185;28;19931;-66
2021/08/26 03:57:24;;;;;;;;;;;;;;;;;;5040729;28;19940;-67
2021/08/26 03:59:51;;;;;;;;;;;;;;;;;;5039722;28;19925;-68
2021/08/26 04:02:18;;;;;;;;;;;;;;;;;;5042901;28;19931;-66
2021/08/26 04:04:45;;;;;;;;;;;;;;;;;;5048416;28;19936;-66
2021/08/26 04:07:12;;;;;;;;;;;;;;;;;;5043656;28;19947;-67
2021/08/26 04:09:39;;;;;;;;;;;;;;;;;;5043741;28;19925;-66
2021/08/26 04:12:06;;;;;;;;;;;;;;;;;;5045759;28;19929;-67
2021/08/26 04:14:33;;;;;;;;;;;;;;;;;;5043044;28;19929;-69
2021/08/26 04:17:00;;;;;;;;;;;;;;;;;;5046059;28;20400;-67
2021/08/26 04:19:27;;;;;;;;;;;;;;;;;;5044394;28;20293;-67
2021/08/26 04:21:54;;;;;;;;;;;;;;;;;;5045393;28;19928;-66
2021/08/26 04:24:21;;;;;;;;;;;;;;;;;;5045024;28;19933;-66
2021/08/26 04:26:48;;;;;;;;;;;;;;;;;;5043641;28;19925;-66
2021/08/26 04:29:15;;;;;;;;;;;;;;;;;;5039893;28;19925;-66
2021/08/26 04:31:42;;;;;;;;;;;;;;;;;;5042295;28;19925;-67
2021/08/26 04:34:09;;;;;;;;;;;;;;;;;;5045039;28;19935;-66
2021/08/26 04:36:36;;;;;;;;;;;;;;;;;;5043146;28;20120;-69
2021/08/26 04:39:03;;;;;;;;;;;;;;;;;;5039694;28;19955;-65
2021/08/26 04:41:30;;;;;;;;;;;;;;;;;;5046389;28;20019;-67
2021/08/26 04:43:57;;;;;;;;;;;;;;;;;;5042898;28;20304;-67
2021/08/26 04:46:24;;;;;;;;;;;;;;;;;;5042432;28;20147;-66
2021/08/26 04:48:51;;;;;;;;;;;;;;;;;;5038586;28;19925;-67
2021/08/26 04:51:18;;;;;;;;;;;;;;;;;;5042253;28;19925;-67
2021/08/26 04:53:45;;;;;;;;;;;;;;;;;;5043189;28;20389;-67
2021/08/26 04:56:11;;;;;;;;;;;;;;;;;;5045559;28;19932;-67
2021/08/26 04:58:39;;;;;;;;;;;;;;;;;;5041408;28;19925;-67
2021/08/26 05:01:06;;;;;;;;;;;;;;;;;;5039287;28;20385;-66
2021/08/26 05:03:33;;;;;;;;;;;;;;;;;;5042347;28;19925;-66
2021/08/26 05:06:00;;;;;;;;;;;;;;;;;;5043208;28;19932;-67
2021/08/26 05:08:27;;;;;;;;;;;;;;;;;;5045544;28;20431;-67
2021/08/26 05:10:54;;;;;;;;;;;;;;;;;;5042371;28;19933;-67
2021/08/26 05:13:21;;;;;;;;;;;;;;;;;;5046296;28;19925;-68
2021/08/26 05:15:48;;;;;;;;;;;;;;;;;;5044303;28;19995;-67
2021/08/26 05:18:15;;;;;;;;;;;;;;;;;;5042551;28;20375;-68
2021/08/26 05:20:42;;;;;;;;;;;;;;;;;;5045996;28;20038;-66
2021/08/26 05:23:09;;;;;;;;;;;;;;;;;;5045799;28;19931;-67
2021/08/26 05:25:36;;;;;;;;;;;;;;;;;;5045407;28;19933;-66
2021/08/26 05:28:03;;;;;;;;;;;;;;;;;;5043683;28;20377;-66
2021/08/26 05:30:30;;;;;;;;;;;;;;;;;;5046617;28;20289;-67
2021/08/26 05:32:57;;;;;;;;;;;;;;;;;;5046648;28;19948;-68
2021/08/26 05:35:24;;;;;;;;;;;;;;;;;;5042721;28;20293;-69
2021/08/26 05:37:51;;;;;;;;;;;;;;;;;;5045756;28;19933;-66
2021/08/26 05:40:18;;;;;;;;;;;;;;;;;;5043995;28;19925;-67
2021/08/26 05:42:45;;;;;;;;;;;;;;;;;;5044970;28;19929;-67
2021/08/26 05:45:12;;;;;;;;;;;;;;;;;;5043262;28;19925;-67
2021/08/26 05:47:39;;;;;;;;;;;;;;;;;;5044008;28;19929;-68
2021/08/26 05:50:06;;;;;;;;;;;;;;;;;;5045157;28;19971;-68
2021/08/26 05:52:33;;;;;;;;;;;;;;;;;;5042833;28;19940;-69
2021/08/26 05:55:00;;;;;;;;;;;;;;;;;;5045883;28;19925;-69
2021/08/26 05:57:27;;;;;;;;;;;;;;;;;;5044402;28;20012;-67
2021/08/26 05:59:54;;;;;;;;;;;;;;;;;;5046813;28;20005;-67
2021/08/26 06:02:20;;;;;;;;;;;;;;;;;;5041211;28;19935;-67
2021/08/26 06:04:47;;;;;;;;;;;;;;;;;;5043421;28;19936;-68
2021/08/26 06:07:14;;;;;;;;;;;;;;;;;;5044196;28;19925;-68
2021/08/26 06:09:41;;;;;;;;;;;;;;;;;;5041979;28;19935;-67
2021/08/26 06:12:08;;;;;;;;;;;;;;;;;;5048450;28;20402;-69
2021/08/26 06:14:35;;;;;;;;;;;;;;;;;;5043824;28;19933;-67
2021/08/26 06:17:02;;;;;;;;;;;;;;;;;;5045024;28;19932;-69
2021/08/26 06:19:29;;;;;;;;;;;;;;;;;;5043980;28;19924;-67
2021/08/26 06:21:56;;;;;;;;;;;;;;;;;;5049827;28;19936;-67
2021/08/26 06:24:23;;;;;;;;;;;;;;;;;;5043558;28;20437;-70
2021/08/26 06:26:50;;;;;;;;;;;;;;;;;;5046585;28;20292;-67
2021/08/26 06:29:19;;;;;;;;;;;;;;;;;;5047081;28;19924;-68
2021/08/26 06:31:47;;;;;;;;;;;;;;;;;;5041283;28;19925;-68
2021/08/26 06:34:14;;;;;;;;;;;;;;;;;;5044748;28;20316;-67
2021/08/26 06:36:41;;;;;;;;;;;;;;;;;;5041849;28;20113;-67
2021/08/26 06:39:08;;;;;;;;;;;;;;;;;;5038200;28;19933;-68
2021/08/26 06:41:35;;;;;;;;;;;;;;;;;;5040343;28;20305;-67
2021/08/26 06:44:02;;;;;;;;;;;;;;;;;;5037888;28;19924;-67
2021/08/26 06:46:29;;;;;;;;;;;;;;;;;;5043333;28;20012;-67
2021/08/26 06:48:56;;;;;;;;;;;;;;;;;;5043857;28;19932;-69
2021/08/26 06:51:23;;;;;;;;;;;;;;;;;;5041849;28;20241;-69
2021/08/26 06:53:50;;;;;;;;;;;;;;;;;;5047321;28;19929;-68
2021/08/26 06:56:17;;;;;;;;;;;;;;;;;;5047504;28;20023;-67
2021/08/26 06:58:44;;;;;;;;;;;;;;;;;;5044029;28;20263;-69
2021/08/26 07:01:11;;;;;;;;;;;;;;;;;;5042345;28;19932;-66
2021/08/26 07:03:38;;;;;;;;;;;;;;;;;;5048197;28;19924;-70
2021/08/26 07:06:05;;;;;;;;;;;;;;;;;;5046517;28;19933;-67
2021/08/26 07:08:32;;;;;;;;;;;;;;;;;;5042145;28;20308;-68
2021/08/26 07:10:59;;;;;;;;;;;;;;;;;;5043874;28;19925;-68
2021/08/26 07:13:25;;;;;;;;;;;;;;;;;;5042960;28;19924;-69
2021/08/26 07:15:52;;;;;;;;;;;;;;;;;;5050689;28;19932;-69
2021/08/26 07:18:19;;;;;;;;;;;;;;;;;;5045498;28;20031;-65
2021/08/26 07:20:46;;;;;;;;;;;;;;;;;;5043152;28;20510;-72
2021/08/26 07:23:13;;;;;;;;;;;;;;;;;;5044733;28;20357;-67
2021/08/26 07:25:40;;;;;;;;;;;;;;;;;;5046819;28;19940;-67
2021/08/26 07:28:07;;;;;;;;;;;;;;;;;;5048440;28;20042;-67
2021/08/26 07:30:34;;;;;;;;;;;;;;;;;;5045410;28;19939;-67
2021/08/26 07:33:01;;;;;;;;;;;;;;;;;;5042548;28;19936;-68
2021/08/26 07:35:28;;;;;;;;;;;;;;;;;;5041665;28;20296;-68
2021/08/26 07:37:55;;;;;;;;;;;;;;;;;;5041697;28;19933;-69
2021/08/26 07:40:22;;;;;;;;;;;;;;;;;;5042744;28;19925;-68
2021/08/26 07:42:52;;;;;;;;;;;;;;;;;;5037646;28;19931;-68
2021/08/26 07:45:22;;;;;;;;;;;;;;;;;;5043265;28;19931;-68
2021/08/26 07:47:49;;;;;;;;;;;;;;;;;;5045316;28;20389;-69
2021/08/26 07:50:16;;;;;;;;;;;;;;;;;;5041486;28;20285;-66
2021/08/26 07:52:43;;;;;;;;;;;;;;;;;;5042453;28;19995;-67
2021/08/26 07:55:10;;;;;;;;;;;;;;;;;;5040688;28;20019;-67
2021/08/26 07:57:37;;;;;;;;;;;;;;;;;;5046618;28;19933;-67
2021/08/26 08:00:04;;;;;;;;;;;;;;;;;;5040827;28;19925;-68
2021/08/26 08:02:31;;;;;;;;;;;;;;;;;;5045614;28;19968;-67
2021/08/26 08:04:58;;;;;;;;;;;;;;;;;;5040247;28;19924;-69
2021/08/26 08:07:25;;;;;;;;;;;;;;;;;;5045402;28;19925;-67
2021/08/26 08:09:52;;;;;;;;;;;;;;;;;;5047977;28;19925;-67
2021/08/26 08:12:19;;;;;;;;;;;;;;;;;;5043892;28;20020;-68
2021/08/26 08:14:46;;;;;;;;;;;;;;;;;;5042515;28;19929;-70
2021/08/26 08:17:13;;;;;;;;;;;;;;;;;;5041840;28;19929;-71
2021/08/26 08:19:40;;;;;;;;;;;;;;;;;;5045100;28;19956;-72
2021/08/26 08:22:07;;;;;;;;;;;;;;;;;;5047377;28;20003;-68
2021/08/26 08:24:34;;;;;;;;;;;;;;;;;;5044254;28;19994;-68
2021/08/26 08:27:01;;;;;;;;;;;;;;;;;;5040743;28;20472;-70
2021/08/26 08:29:28;;;;;;;;;;;;;;;;;;5039094;28;19967;-69
2021/08/26 08:31:55;;;;;;;;;;;;;;;;;;5050094;28;19982;-68
2021/08/26 08:34:22;;;;;;;;;;;;;;;;;;5046031;28;20266;-68
2021/08/26 08:36:48;;;;;;;;;;;;;;;;;;5044215;28;19931;-68
2021/08/26 08:39:15;;;;;;;;;;;;;;;;;;5044900;28;19929;-67
2021/08/26 08:41:42;;;;;;;;;;;;;;;;;;5046696;28;19931;-67
2021/08/26 08:44:09;;;;;;;;;;;;;;;;;;5046873;28;20459;-67
2021/08/26 08:46:36;;;;;;;;;;;;;;;;;;5040695;28;19928;-68
2021/08/26 08:49:03;;;;;;;;;;;;;;;;;;5040651;28;19925;-67
2021/08/26 08:51:30;;;;;;;;;;;;;;;;;;5042575;28;20084;-69
2021/08/26 08:53:57;;;;;;;;;;;;;;;;;;5041294;28;19931;-70
2021/08/26 08:56:26;;;;;;;;;;;;;;;;;;5050247;28;20369;-69
2021/08/26 08:58:53;;;;;;;;;;;;;;;;;;5043446;28;19952;-67
2021/08/26 09:01:20;;;;;;;;;;;;;;;;;;5048564;28;19925;-67
2021/08/26 09:03:47;;;;;;;;;;;;;;;;;;5045082;28;19925;-68
2021/08/26 09:06:14;;;;;;;;;;;;;;;;;;5043778;28;19925;-68
2021/08/26 09:08:41;;;;;;;;;;;;;;;;;;5045965;28;19940;-70
2021/08/26 09:11:08;;;;;;;;;;;;;;;;;;5049630;28;19928;-70
2021/08/26 09:13:35;;;;;;;;;;;;;;;;;;5043747;28;20408;-68
2021/08/26 09:16:02;;;;;;;;;;;;;;;;;;5042580;28;19947;-68
2021/08/26 09:18:29;;;;;;;;;;;;;;;;;;5042905;28;19925;-66
2021/08/26 09:20:56;;;;;;;;;;;;;;;;;;5047161;28;19935;-67
2021/08/26 09:23:23;;;;;;;;;;;;;;;;;;5047005;28;19925;-70
2021/08/26 09:25:50;;;;;;;;;;;;;;;;;;5046213;28;20434;-69
2021/08/26 09:28:17;;;;;;;;;;;;;;;;;;5050763;28;19925;-67
2021/08/26 09:30:44;;;;;;;;;;;;;;;;;;5044843;28;19933;-69
2021/08/26 09:33:15;;;;;;;;;;;;;;;;;;5039288;28;20312;-69
2021/08/26 09:35:42;;;;;;;;;;;;;;;;;;5045844;28;19947;-67
2021/08/26 09:38:09;;;;;;;;;;;;;;;;;;5044287;28;19931;-66
2021/08/26 09:40:36;;;;;;;;;;;;;;;;;;5048547;28;19937;-69
2021/08/26 09:43:03;;;;;;;;;;;;;;;;;;5053911;22;19925;-68
2021/08/26 09:45:30;;;;;;;;;;;;;;;;;;5024358;28;20044;-63
2021/08/26 09:47:57;;;;;;;;;;;;;;;;;;5029959;28;19925;-68
2021/08/26 09:50:24;;;;;;;;;;;;;;;;;;5030247;28;19948;-68
2021/08/26 09:52:51;;;;;;;;;;;;;;;;;;5012505;28;20408;-65
2021/08/26 09:55:18;;;;;;;;;;;;;;;;;;5005369;28;19933;-68
2021/08/26 09:57:45;;;;;;;;;;;;;;;;;;5012018;28;19925;-67
2021/08/26 10:00:12;;;;;;;;;;;;;;;;;;5011628;28;19925;-68
2021/08/26 10:02:39;;;;;;;;;;;;;;;;;;5013041;28;19933;-65
2021/08/26 10:05:08;;;;;;;;;;;;;;;;;;5009248;28;19965;-64
2021/08/26 10:07:35;;;;;;;;;;;;;;;;;;5014460;28;19926;-65
2021/08/26 10:10:02;;;;;;;;;;;;;;;;;;5011541;28;20008;-66
2021/08/26 10:12:29;;;;;;;;;;;;;;;;;;5012444;28;19926;-67
2021/08/26 10:14:56;;;;;;;;;;;;;;;;;;5008951;28;19925;-68
2021/08/26 10:17:23;;;;;;;;;;;;;;;;;;5012485;28;19925;-66
2021/08/26 10:19:50;;;;;;;;;;;;;;;;;;5012997;28;19931;-66
2021/08/26 10:22:16;;;;;;;;;;;;;;;;;;5012366;28;19929;-66
2021/08/26 10:24:43;;;;;;;;;;;;;;;;;;5009770;28;19925;-67
2021/08/26 10:27:10;;;;;;;;;;;;;;;;;;5012640;28;19935;-67
2021/08/26 10:29:38;;;;;;;;;;;;;;;;;;5008047;28;20294;-67
2021/08/26 10:32:06;;;;;;;;;;;;;;;;;;5010085;28;19926;-67
2021/08/26 10:34:33;;;;;;;;;;;;;;;;;;5003131;28;20221;-67
2021/08/26 10:36:59;;;;;;;;;;;;;;;;;;5011784;28;20386;-67
2021/08/26 10:39:26;;;;;;;;;;;;;;;;;;5009647;28;20653;-66
2021/08/26 10:41:54;;;;;;;;;;;;;;;;;;5011995;28;19926;-66
2021/08/26 10:44:21;;;;;;;;;;;;;;;;;;5007212;28;20416;-65
2021/08/26 10:46:48;;;;;;;;;;;;;;;;;;5011113;28;19932;-65
2021/08/26 10:49:15;;;;;;;;;;;;;;;;;;5015968;28;19925;-65
2021/08/26 10:51:42;;;;;;;;;;;;;;;;;;5012461;28;20004;-65
2021/08/26 10:54:09;;;;;;;;;;;;;;;;;;5009320;28;19937;-67
2021/08/26 10:56:36;;;;;;;;;;;;;;;;;;5014594;28;19929;-68
2021/08/26 10:59:03;;;;;;;;;;;;;;;;;;5014033;28;19980;-67
2021/08/26 11:01:30;;;;;;;;;;;;;;;;;;5005969;28;19925;-67
2021/08/26 11:03:57;;;;;;;;;;;;;;;;;;5007611;28;19926;-67
2021/08/26 11:06:24;;;;;;;;;;;;;;;;;;5005389;28;20452;-67
2021/08/26 11:08:52;;;;;;;;;;;;;;;;;;5004166;28;19933;-66
2021/08/26 11:11:18;;;;;;;;;;;;;;;;;;5007777;28;19933;-67
2021/08/26 11:13:45;;;;;;;;;;;;;;;;;;5010818;28;19965;-68
2021/08/26 11:16:13;;;;;;;;;;;;;;;;;;5007794;28;19933;-67
2021/08/26 11:18:40;;;;;;;;;;;;;;;;;;5009432;28;20301;-66
2021/08/26 11:21:07;;;;;;;;;;;;;;;;;;5011425;28;19943;-68
2021/08/26 11:23:34;;;;;;;;;;;;;;;;;;5007539;28;19932;-67
2021/08/26 11:26:01;;;;;;;;;;;;;;;;;;5006442;28;19925;-66
2021/08/26 11:28:28;;;;;;;;;;;;;;;;;;5006420;28;20537;-67
2021/08/26 11:30:55;;;;;;;;;;;;;;;;;;5010219;28;20210;-67
2021/08/26 11:33:22;;;;;;;;;;;;;;;;;;5012779;28;19934;-68
2021/08/26 11:35:49;;;;;;;;;;;;;;;;;;5002914;28;19939;-66
2021/08/26 11:38:16;;;;;;;;;;;;;;;;;;5007819;28;19932;-67
2021/08/26 11:40:43;;;;;;;;;;;;;;;;;;5006433;28;19925;-66
2021/08/26 11:43:10;;;;;;;;;;;;;;;;;;5002291;28;19930;-65
2021/08/26 11:45:40;;;;;;;;;;;;;;;;;;5004350;28;19965;-64
2021/08/26 11:48:09;;;;;;;;;;;;;;;;;;5006361;28;19932;-68
2021/08/26 11:50:36;;;;;;;;;;;;;;;;;;5007459;28;19941;-67
2021/08/26 11:53:03;;;;;;;;;;;;;;;;;;5005952;28;19926;-67
2021/08/26 11:55:33;;;;;;;;;;;;;;;;;;5007571;28;19926;-69
2021/08/26 11:58:00;;;;;;;;;;;;;;;;;;5004929;28;19933;-67
2021/08/26 12:00:27;;;;;;;;;;;;;;;;;;5007616;28;19972;-67
2021/08/26 12:02:56;;;;;;;;;;;;;;;;;;5004932;28;19925;-67
2021/08/26 12:05:22;;;;;;;;;;;;;;;;;;5007966;28;20389;-66
2021/08/26 12:07:50;;;;;;;;;;;;;;;;;;5008739;28;20364;-67
2021/08/26 12:10:17;;;;;;;;;;;;;;;;;;5003900;28;20013;-66
2021/08/26 12:12:44;;;;;;;;;;;;;;;;;;5002936;28;19961;-67
2021/08/26 12:15:11;;;;;;;;;;;;;;;;;;5009404;28;19926;-66
2021/08/26 12:17:39;;;;;;;;;;;;;;;;;;5003604;28;20060;-66
2021/08/26 12:20:06;;;;;;;;;;;;;;;;;;5004763;28;19987;-65
2021/08/26 12:22:33;;;;;;;;;;;;;;;;;;5007235;28;19980;-68
2021/08/26 12:25:00;;;;;;;;;;;;;;;;;;5010830;28;20032;-68
2021/08/26 12:27:27;;;;;;;;;;;;;;;;;;5002148;28;19929;-67
2021/08/26 12:29:54;;;;;;;;;;;;;;;;;;5006242;28;20301;-68
2021/08/26 12:32:21;;;;;;;;;;;;;;;;;;5005204;28;19929;-67
2021/08/26 12:34:48;;;;;;;;;;;;;;;;;;5008431;28;19972;-67
2021/08/26 12:37:15;;;;;;;;;;;;;;;;;;5006425;28;19976;-66
2021/08/26 12:39:43;;;;;;;;;;;;;;;;;;5005069;28;19933;-66
2021/08/26 12:42:11;;;;;;;;;;;;;;;;;;5004465;28;19933;-66
2021/08/26 12:44:38;;;;;;;;;;;;;;;;;;4999916;28;19993;-67
2021/08/26 12:47:08;;;;;;;;;;;;;;;;;;5001344;28;19972;-67
2021/08/26 12:49:35;;;;;;;;;;;;;;;;;;5000734;28;19936;-67
2021/08/26 12:52:02;;;;;;;;;;;;;;;;;;5002454;28;19931;-67
2021/08/26 12:54:29;;;;;;;;;;;;;;;;;;5006653;28;19931;-66
2021/08/26 12:56:57;;;;;;;;;;;;;;;;;;4998722;28;19932;-67
2021/08/26 12:59:24;;;;;;;;;;;;;;;;;;5003639;28;19925;-67
2021/08/26 13:01:51;;;;;;;;;;;;;;;;;;5000768;28;19961;-67
2021/08/26 13:04:18;;;;;;;;;;;;;;;;;;5006755;28;20028;-68
2021/08/26 13:06:45;;;;;;;;;;;;;;;;;;5002392;28;19940;-68
2021/08/26 13:09:13;;;;;;;;;;;;;;;;;;5007240;28;19929;-65
2021/08/26 13:11:40;;;;;;;;;;;;;;;;;;5002149;28;20009;-68
2021/08/26 13:14:07;;;;;;;;;;;;;;;;;;5005857;28;20389;-66
2021/08/26 13:16:34;;;;;;;;;;;;;;;;;;5000012;28;20352;-69
2021/08/26 13:19:01;;;;;;;;;;;;;;;;;;5010295;28;19941;-68
2021/08/26 13:21:28;;;;;;;;;;;;;;;;;;5007894;28;19932;-68
2021/08/26 13:23:55;;;;;;;;;;;;;;;;;;5011085;28;19932;-69
2021/08/26 13:26:23;;;;;;;;;;;;;;;;;;5000077;28;19926;-68
2021/08/26 13:28:50;;;;;;;;;;;;;;;;;;5004674;28;19932;-68
2021/08/26 13:31:17;;;;;;;;;;;;;;;;;;5009781;28;19971;-68
2021/08/26 13:33:44;;;;;;;;;;;;;;;;;;5002932;28;19934;-68
2021/08/26 13:36:11;;;;;;;;;;;;;;;;;;5007494;28;19980;-67
2021/08/26 13:38:38;;;;;;;;;;;;;;;;;;5007688;28;19973;-67
2021/08/26 13:41:05;;;;;;;;;;;;;;;;;;5008051;28;20020;-67
2021/08/26 13:43:33;;;;;;;;;;;;;;;;;;5006902;28;20052;-67
2021/08/26 13:46:00;;;;;;;;;;;;;;;;;;5006437;28;19947;-66
2021/08/26 13:48:27;;;;;;;;;;;;;;;;;;5001799;28;19929;-67
2021/08/26 13:50:54;;;;;;;;;;;;;;;;;;5006035;28;19930;-67
2021/08/26 13:53:21;;;;;;;;;;;;;;;;;;5002480;28;19925;-66
2021/08/26 13:55:48;;;;;;;;;;;;;;;;;;5004455;28;20025;-67
2021/08/26 13:58:15;;;;;;;;;;;;;;;;;;5006628;28;19926;-67
2021/08/26 14:00:43;;;;;;;;;;;;;;;;;;5003590;28;19992;-67
2021/08/26 14:03:10;;;;;;;;;;;;;;;;;;5006180;28;19925;-67
2021/08/26 14:05:37;;;;;;;;;;;;;;;;;;5000551;28;21478;-69
2021/08/26 14:08:05;;;;;;;;;;;;;;;;;;5008625;28;20283;-66
2021/08/26 14:10:32;;;;;;;;;;;;;;;;;;5005000;28;19933;-66
2021/08/26 14:12:59;;;;;;;;;;;;;;;;;;5008045;28;19926;-66
2021/08/26 14:15:26;;;;;;;;;;;;;;;;;;5002554;28;19937;-66
2021/08/26 14:17:53;;;;;;;;;;;;;;;;;;5005463;28;19926;-67
2021/08/26 14:20:20;;;;;;;;;;;;;;;;;;5004241;28;20438;-67
2021/08/26 14:22:47;;;;;;;;;;;;;;;;;;5001873;28;20427;-68
2021/08/26 14:25:14;;;;;;;;;;;;;;;;;;5003042;28;20021;-67
2021/08/26 14:27:41;;;;;;;;;;;;;;;;;;4997936;28;19932;-67
2021/08/26 14:30:08;;;;;;;;;;;;;;;;;;5003468;28;19929;-68
2021/08/26 14:32:36;;;;;;;;;;;;;;;;;;5004200;28;20279;-66
2021/08/26 14:35:05;;;;;;;;;;;;;;;;;;5004706;28;19936;-68
2021/08/26 14:37:32;;;;;;;;;;;;;;;;;;4999568;28;19940;-68
2021/08/26 14:39:59;;;;;;;;;;;;;;;;;;5000980;28;19926;-68
2021/08/26 14:42:26;;;;;;;;;;;;;;;;;;5006442;28;20443;-68
2021/08/26 14:44:53;;;;;;;;;;;;;;;;;;5007325;28;20368;-68
2021/08/26 14:47:20;;;;;;;;;;;;;;;;;;5008819;28;20020;-67
2021/08/26 14:49:47;;;;;;;;;;;;;;;;;;5003541;28;19941;-68
2021/08/26 14:52:16;;;;;;;;;;;;;;;;;;5006317;28;19925;-68
2021/08/26 14:54:43;;;;;;;;;;;;;;;;;;5004324;28;19929;-68
2021/08/26 14:57:10;;;;;;;;;;;;;;;;;;5006897;28;19984;-68
2021/08/26 14:59:37;;;;;;;;;;;;;;;;;;5002908;28;19987;-68
2021/08/26 15:02:04;;;;;;;;;;;;;;;;;;5003219;28;19934;-68
2021/08/26 15:04:31;;;;;;;;;;;;;;;;;;5005517;28;19926;-67
2021/08/26 15:06:58;;;;;;;;;;;;;;;;;;5007416;28;19925;-68
2021/08/26 15:09:26;;;;;;;;;;;;;;;;;;4998843;28;19926;-67
2021/08/26 15:11:54;;;;;;;;;;;;;;;;;;5003768;28;19925;-67
2021/08/26 15:14:21;;;;;;;;;;;;;;;;;;5003912;28;19933;-67
2021/08/26 15:16:48;;;;;;;;;;;;;;;;;;5002447;28;19933;-67
2021/08/26 15:19:15;;;;;;;;;;;;;;;;;;5009960;28;19961;-66
2021/08/26 15:21:42;;;;;;;;;;;;;;;;;;5004341;28;19933;-66
2021/08/26 15:24:09;;;;;;;;;;;;;;;;;;5007814;28;19925;-66
2021/08/26 15:26:36;;;;;;;;;;;;;;;;;;5007526;28;20020;-68
2021/08/26 15:29:03;;;;;;;;;;;;;;;;;;5007213;28;19925;-66
2021/08/26 15:31:30;;;;;;;;;;;;;;;;;;5005051;28;19940;-67
2021/08/26 15:33:57;;;;;;;;;;;;;;;;;;5003014;28;19931;-66
2021/08/26 15:36:24;;;;;;;;;;;;;;;;;;5007488;28;19937;-69
2021/08/26 15:38:51;;;;;;;;;;;;;;;;;;5005592;28;20349;-68
2021/08/26 15:41:18;;;;;;;;;;;;;;;;;;5005291;28;19980;-69
2021/08/26 15:43:45;;;;;;;;;;;;;;;;;;5040254;22;19928;-70
2021/08/26 15:46:13;;;;;;;;;;;;;;;;;;5026031;28;19925;-71
2021/08/26 15:48:40;;;;;;;;;;;;;;;;;;5028008;28;20312;-71
2021/08/26 15:51:07;;;;;;;;;;;;;;;;;;5025536;28;19979;-70
2021/08/26 15:53:38;;;;;;;;;;;;;;;;;;5005663;28;20233;-70
2021/08/26 15:56:07;;;;;;;;;;;;;;;;;;5004694;28;20405;-69
2021/08/26 15:58:41;;;;;;;;;;;;;;;;;;5009492;28;20036;-72
2021/08/26 16:01:15;;;;;;;;;;;;;;;;;;5012602;28;20436;-70
2021/08/26 16:03:42;;;;;;;;;;;;;;;;;;5006648;28;19932;-69
2021/08/26 16:06:09;;;;;;;;;;;;;;;;;;5003098;28;19926;-70
2021/08/26 16:08:36;;;;;;;;;;;;;;;;;;5005011;28;19929;-70
2021/08/26 16:11:03;;;;;;;;;;;;;;;;;;5007570;28;20024;-70
2021/08/26 16:13:30;;;;;;;;;;;;;;;;;;5005047;28;19929;-70
2021/08/26 16:15:57;;;;;;;;;;;;;;;;;;5005235;28;19929;-70
2021/08/26 16:18:24;;;;;;;;;;;;;;;;;;5006252;28;19934;-69
2021/08/26 16:20:51;;;;;;;;;;;;;;;;;;5010764;28;19932;-72
2021/08/26 16:23:18;;;;;;;;;;;;;;;;;;5008201;28;19926;-72
2021/08/26 16:25:45;;;;;;;;;;;;;;;;;;5004012;28;19961;-71
2021/08/26 16:28:12;;;;;;;;;;;;;;;;;;5004629;28;19973;-71
2021/08/26 16:30:39;;;;;;;;;;;;;;;;;;5006403;28;19925;-71
2021/08/26 16:33:06;;;;;;;;;;;;;;;;;;5005455;28;19949;-73
2021/08/26 16:35:33;;;;;;;;;;;;;;;;;;5002243;28;19933;-71
2021/08/26 16:38:00;;;;;;;;;;;;;;;;;;5007036;28;20033;-72
2021/08/26 16:40:27;;;;;;;;;;;;;;;;;;5003454;28;19932;-73
2021/08/26 16:42:56;;;;;;;;;;;;;;;;;;5002931;28;20012;-72
2021/08/26 16:45:23;;;;;;;;;;;;;;;;;;5002332;28;20021;-72
2021/08/26 16:47:52;;;;;;;;;;;;;;;;;;5006804;28;20020;-73
2021/08/26 16:50:19;;;;;;;;;;;;;;;;;;5004659;28;19968;-72